메인 페이지
METAR-TAF:

METAR-TAF

공항 :

Brazoria County Airport

Angleton / Lake Jackson, 텍사스, 미국

위도: 29-06-55N, 경도: 095-27-47W, 고도: 7m

현재 날씨관측

예보는 28분 전, 16:05시(UTC)에 발표되었습니다.
15kt, 순간 최대 풍속 26kt
온도 30°C
습도 84%
기압 1017 hPa
시정: 16.1km
고도 2200ft 상공 구름 보통
고도 2900ft 상공 구름 많음
고도 7500ft 상공 흐림

METAR: KLBX 201605Z AUTO 09015G26KT 10SM SCT022 BKN029 OVC075 30/27 A3004 RMK AO2 PK WND 09027/1554 T03000267

시각: 11:33 (16:33 UTC)

예보

예보는 3 시간 24분 전, 13:09시(UTC)에 발표되었습니다.
예보 대상 시간: 20일 13시부터 21일 12시까지 (UTC)
12kt, 순간 최대 풍속 25kt
시정: 10km
고도 2500ft 상공 구름 많음
고도 3500ft 상공 구름 많음
고도 8000ft 상공 흐림
시계 내 소나기
일시적
20일 13시부터 20일 15시까지 (UTC)
시정: 3.2km
고도 1200ft 상공 구름 많음
강한소나기
20일 1500시부터 (UTC)
16kt, 순간 최대 풍속 26kt
시정: 10km
고도 1500ft 상공 구름 보통
고도 2500ft 상공 구름 많음, 적란운.
고도 4000ft 상공 구름 많음
약한소나기, 시계 내 뇌우
20일 2200시부터 (UTC)
12kt, 순간 최대 풍속 20kt
시정: 10km
고도 1500ft 상공 구름 보통
고도 5000ft 상공 구름 많음
시계 내 소나기
21일 0400시부터 (UTC)
6kt
시정: 10km
고도 2500ft 상공 구름 보통
고도 5000ft 상공 구름 보통
시계 내 소나기,

TAF: KLBX 201309Z 2013/2112 08012G25KT P6SM VCSH BKN025 BKN035 OVC080 TEMPO 2013/2015 2SM +SHRA BKN012 FM201500 09016G26KT P6SM -SHRA VCTS SCT015 BKN025CB BKN040 FM202200 09012G20KT P6SM VCSH SCT015 BKN050 FM210400 08006KT P6SM VCSH SCT025 SCT050

4,000개 이상의 공항 관측 자료 및 예보 (METAR 및 TAF 보고).

지도상에서 검색 가능한 기상관측소가 노란 점과 빨간 점으로 표시되어 있습니다.

기상관측소 명을 보려면 표시 위로 마우스를 이동하세요.

날씨 관측과 예보를 보려면 클릭하세요.

지도 변경 : 확대하려면 엑스 표시가 있는 녹색 버튼, 축소하려면 빼기 표시가 있는 녹색 버튼, 다음 페이지의 지도를 보려면 녹색 화살표를 클릭하세요.


METAR-TAF: